This is the latest recevied weather packets stored in our database for station/object BV5AB-33. If no packets are shown the sender has not sent any weather packets the latest 10 day(s).
| Time | Temp. | Humidity | Pressure | Rain* | Wind** | Luminosity | Snow |
|---|---|---|---|---|---|---|---|
| 1777884598 | 27.78° C | 53% | 983.1 hPa | 0 mm | - | - | - |
| 1777879197 | 28.89° C | 50% | 982.6 hPa | 0 mm | - | - | - |
| 1777878297 | 28.89° C | 50% | 982.6 hPa | 0 mm | - | - | - |
| 1777877998 | 28.89° C | 50% | 982.5 hPa | 0 mm | - | - | - |
| 1777872898 | 30.56° C | 50% | 982.9 hPa | 0 mm | - | - | - |
| 1777872297 | 31.11° C | 49% | 983 hPa | 0 mm | - | - | - |
| 1777871699 | 31.67° C | 46% | 983 hPa | 0 mm | - | - | - |
| 1777862998 | 28.89° C | 52% | 983.9 hPa | 0 mm | - | - | - |
| 1777862398 | 28.33° C | 53% | 983.9 hPa | 0 mm | - | - | - |
| 1777861198 | 27.78° C | 54% | 983.8 hPa | 0 mm | - | - | - |
| 1777860898 | 27.78° C | 53% | 983.6 hPa | 0 mm | - | - | - |
| 1777860298 | 28.33° C | 53% | 983.7 hPa | 0 mm | - | - | - |
| 1777858498 | 29.44° C | 53% | 984 hPa | 0 mm | - | - | - |
| 1777857897 | 29.44° C | 53% | 984 hPa | 0 mm | - | - | - |
| 1777852798 | 29.44° C | 60% | 983.3 hPa | 0 mm | - | - | - |
| 1777852198 | 29.44° C | 60% | 983.1 hPa | 0 mm | - | - | - |
| 1777851298 | 29.44° C | 60% | 983.2 hPa | 0 mm | - | - | - |
| 1777847398 | 26.11° C | 70% | 983.2 hPa | 0 mm | - | - | - |
| 1777846499 | 25.56° C | 71% | 983.1 hPa | 0 mm | - | - | - |
| 1777845599 | 25° C | 72% | 983.3 hPa | 0 mm | - | - | - |
| 1777842898 | 25.56° C | - | - | 0 mm | - | - | - |
| 1777841699 | 26.11° C | - | - | 0 mm | - | - | - |
| 1777841400 | 26.11° C | - | - | 0 mm | - | - | - |
| 1777840199 | 26.11° C | - | - | 0 mm | - | - | - |
| 1777837799 | 26.11° C | - | - | 0 mm | - | - | - |
* Rain latest hour (hover to see other rain measurements)
** Current wind speed in m/s (hover to see current wind gust speed)